Time;durP1;ratioP1;P1;durP2;ratioP2;P2;SDS_P1;SDS_P2;PMS_P1;PMS_P2;Temp;Humidity;BMP_temperature;BMP_pressure;BME280_temperature;BME280_humidity;BME280_pressure;Samples;Min_cycle;Max_cycle;Signal;HPM_P1;HPM_P2
2022/11/09 00:00:49;;;;;;;14.05;3.40;;;;;;;15.45;78.14;100237.59;4996488;28;20038;-67
2022/11/09 00:03:16;;;;;;;14.95;3.00;;;;;;;15.47;78.15;100232.50;4996585;28;20497;-66
2022/11/09 00:05:54;;;;;;;12.85;3.08;;;;;;;15.68;77.71;100238.59;4995570;28;20072;-68
2022/11/09 00:08:22;;;;;;;16.75;3.58;;;;;;;15.48;78.36;100244.44;5015275;28;20061;-67
2022/11/09 00:10:49;;;;;;;15.73;3.85;;;;;;;15.41;78.70;100250.56;4996716;28;20049;-68
2022/11/09 00:13:16;;;;;;;20.48;4.05;;;;;;;15.41;79.14;100258.13;4996994;28;20067;-68
2022/11/09 00:15:44;;;;;;;14.25;3.08;;;;;;;15.50;79.11;100259.53;4997378;28;20048;-68
2022/11/09 00:18:12;;;;;;;20.60;4.00;;;;;;;15.40;80.13;100256.50;5014923;28;20057;-68
2022/11/09 00:20:40;;;;;;;14.70;3.65;;;;;;;15.59;80.33;100251.84;5010760;28;20048;-67
2022/11/09 00:23:15;;;;;;;17.98;4.03;;;;;;;15.46;81.73;100255.84;5014907;28;20501;-67
2022/11/09 00:25:43;;;;;;;18.02;3.42;;;;;;;15.33;84.01;100248.75;5013489;28;20073;-67
2022/11/09 00:28:10;;;;;;;21.17;3.80;;;;;;;15.08;85.56;100246.47;5015301;28;20041;-67
2022/11/09 00:30:38;;;;;;;18.23;4.07;;;;;;;15.07;85.67;100204.06;5013361;28;20395;-67
2022/11/09 00:33:06;;;;;;;13.65;3.50;;;;;;;15.01;86.34;100202.69;5014669;28;20053;-68
2022/11/09 00:35:37;;;;;;;14.27;3.40;;;;;;;15.12;86.20;100197.44;5013106;28;20054;-68
2022/11/09 00:38:04;;;;;;;18.13;3.63;;;;;;;15.07;85.73;100195.75;5014484;28;20436;-68
2022/11/09 00:40:31;;;;;;;14.27;3.20;;;;;;;14.92;86.53;100202.06;5014211;28;20595;-68
2022/11/09 00:42:58;;;;;;;15.60;3.33;;;;;;;15.03;86.04;100205.13;5014682;28;20049;-67
2022/11/09 00:45:26;;;;;;;19.08;4.05;;;;;;;15.03;85.79;100207.91;4996989;28;20065;-67
2022/11/09 00:47:53;;;;;;;14.00;2.97;;;;;;;15.12;85.16;100212.13;5016540;28;20046;-67
2022/11/09 00:50:20;;;;;;;14.70;3.47;;;;;;;15.02;85.53;100197.97;5007578;28;20057;-67
2022/11/09 00:52:48;;;;;;;17.65;3.40;;;;;;;14.95;85.89;100208.88;5016999;28;20121;-67
2022/11/09 00:55:15;;;;;;;13.68;3.47;;;;;;;14.91;86.23;100206.00;5017003;28;20060;-67
2022/11/09 00:57:42;;;;;;;14.35;2.95;;;;;;;14.89;86.16;100205.53;5010706;28;20054;-67
2022/11/09 01:00:10;;;;;;;15.73;3.20;;;;;;;14.92;85.76;100202.06;4990854;28;20046;-68
2022/11/09 01:02:38;;;;;;;19.35;3.60;;;;;;;15.00;85.59;100208.59;5016568;28;20045;-67
2022/11/09 01:05:06;;;;;;;15.75;3.60;;;;;;;14.92;85.46;100221.50;5016356;28;20057;-68
2022/11/09 01:07:33;;;;;;;15.57;3.15;;;;;;;15.03;85.42;100228.13;5016910;28;20079;-67
2022/11/09 01:10:00;;;;;;;13.07;2.75;;;;;;;14.91;85.70;100228.19;5001026;28;20050;-67
2022/11/09 01:12:28;;;;;;;15.95;3.53;;;;;;;15.03;85.57;100227.34;5015522;28;20046;-61
2022/11/09 01:14:55;;;;;;;15.52;2.75;;;;;;;14.96;85.20;100225.16;5017343;28;20057;-62
2022/11/09 01:17:23;;;;;;;11.80;2.63;;;;;;;14.92;85.85;100226.22;5018228;28;20056;-67
2022/11/09 01:19:50;;;;;;;12.73;3.05;;;;;;;14.83;85.95;100220.00;4985180;28;20057;-67
2022/11/09 01:22:20;;;;;;;16.42;3.28;;;;;;;14.78;86.52;100231.38;5017432;28;20046;-66
2022/11/09 01:24:47;;;;;;;19.30;3.58;;;;;;;14.96;85.67;100233.47;5000767;28;20049;-68
2022/11/09 01:27:15;;;;;;;13.25;2.80;;;;;;;14.90;85.13;100234.91;5014100;28;20061;-68
2022/11/09 01:29:43;;;;;;;13.30;3.08;;;;;;;14.77;85.44;100241.63;5016623;28;20053;-68
2022/11/09 01:32:10;;;;;;;12.98;2.72;;;;;;;14.89;84.69;100249.13;5017516;28;20544;-67
2022/11/09 01:34:39;;;;;;;15.80;2.85;;;;;;;14.72;85.03;100250.22;4984493;28;20489;-67
2022/11/09 01:37:06;;;;;;;12.77;2.95;;;;;;;14.77;85.14;100261.03;5015764;28;20056;-67
2022/11/09 01:39:33;;;;;;;13.75;3.78;;;;;;;14.80;85.10;100274.22;5025591;28;20065;-66
2022/11/09 01:42:02;;;;;;;12.75;2.40;;;;;;;14.75;84.72;100271.69;5015037;28;20057;-67
2022/11/09 01:44:29;;;;;;;15.65;3.25;;;;;;;14.74;84.36;100275.63;5016518;28;20054;-66
2022/11/09 01:47:03;;;;;;;14.05;3.15;;;;;;;14.78;84.30;100281.28;5017446;28;20046;-67
2022/11/09 01:49:39;;;;;;;13.13;3.00;;;;;;;14.70;84.20;100279.47;5000475;28;20050;-67
2022/11/09 01:52:24;;;;;;;16.02;3.20;;;;;;;14.67;84.58;100283.72;5016905;28;20046;-67
2022/11/09 01:54:59;;;;;;;14.35;3.15;;;;;;;14.57;84.26;100279.47;5017818;28;20058;-67
2022/11/09 01:57:32;;;;;;;11.60;2.67;;;;;;;14.48;84.82;100286.31;5015839;28;20046;-68
2022/11/09 02:00:04;;;;;;;14.38;2.95;;;;;;;14.48;85.12;100289.09;5015673;28;20051;-68
2022/11/09 02:02:43;;;;;;;14.90;3.13;;;;;;;14.42;85.34;100296.84;5027830;28;20054;-68
2022/11/09 02:05:13;;;;;;;15.93;2.85;;;;;;;14.39;85.41;100288.41;5014913;28;20046;-68
2022/11/09 02:07:41;;;;;;;12.48;2.53;;;;;;;14.33;85.62;100292.59;5014824;28;20068;-68
2022/11/09 02:10:28;;;;;;;13.88;2.72;;;;;;;14.24;85.32;100283.56;5016164;28;20057;-68
2022/11/09 02:12:58;;;;;;;18.15;3.08;;;;;;;14.33;85.14;100289.81;4999371;28;20397;-68
2022/11/09 02:15:26;;;;;;;10.48;2.72;;;;;;;14.23;85.73;100299.38;4999381;28;20058;-68
2022/11/09 02:17:55;;;;;;;13.18;3.10;;;;;;;14.24;85.81;100294.66;4999849;28;20531;-67
2022/11/09 02:20:23;;;;;;;11.73;2.55;;;;;;;14.35;85.65;100302.16;4998698;28;20050;-68
2022/11/09 02:22:51;;;;;;;13.13;2.97;;;;;;;14.27;85.13;100294.78;4983133;28;20393;-68
2022/11/09 02:25:20;;;;;;;15.25;3.40;;;;;;;14.19;85.74;100286.56;4997637;28;20057;-66
2022/11/09 02:27:49;;;;;;;17.23;2.80;;;;;;;14.10;85.70;100280.34;5015755;28;20045;-67
2022/11/09 02:30:18;;;;;;;13.77;3.40;;;;;;;14.20;85.42;100275.13;4997629;28;20053;-66
2022/11/09 02:32:47;;;;;;;11.48;2.58;;;;;;;14.14;85.11;100275.72;4997859;28;20054;-67
2022/11/09 02:35:14;;;;;;;11.05;2.40;;;;;;;14.17;85.07;100278.63;5016574;28;20060;-67
2022/11/09 02:37:49;;;;;;;11.85;2.92;;;;;;;14.15;84.93;100277.34;5003578;28;20058;-66
2022/11/09 02:40:21;;;;;;;14.60;2.80;;;;;;;14.11;84.59;100284.72;4998159;28;20064;-66
2022/11/09 02:42:49;;;;;;;10.55;2.33;;;;;;;14.12;84.38;100281.59;5007081;28;20156;-67
2022/11/09 02:45:16;;;;;;;9.20;2.33;;;;;;;14.17;84.41;100288.88;5031329;28;20501;-67
2022/11/09 02:47:44;;;;;;;10.88;2.22;;;;;;;14.13;83.90;100291.53;4998656;28;20054;-67
2022/11/09 02:50:11;;;;;;;12.95;2.38;;;;;;;14.10;83.49;100286.69;5000018;28;20061;-66
2022/11/09 02:52:38;;;;;;;14.45;2.53;;;;;;;13.98;83.57;100292.22;5014200;28;20064;-69
2022/11/09 02:55:06;;;;;;;10.95;2.47;;;;;;;14.05;83.74;100299.97;5016003;28;20062;-66
2022/11/09 02:57:34;;;;;;;10.02;2.20;;;;;;;14.10;83.32;100295.00;4998493;28;20056;-68
2022/11/09 03:00:03;;;;;;;13.02;2.10;;;;;;;14.05;83.02;100302.75;5012176;28;20057;-67
2022/11/09 03:02:30;;;;;;;9.23;2.08;;;;;;;13.94;83.51;100310.69;5008096;28;20048;-67
2022/11/09 03:04:58;;;;;;;6.88;1.42;;;;;;;13.91;83.34;100307.81;5014879;28;20535;-68
2022/11/09 03:07:26;;;;;;;8.82;2.05;;;;;;;13.97;82.69;100312.75;4998083;28;20504;-66
2022/11/09 03:09:54;;;;;;;12.30;2.08;;;;;;;14.00;82.83;100317.59;5014028;28;20525;-67
2022/11/09 03:12:29;;;;;;;13.00;2.10;;;;;;;13.99;81.93;100321.53;4996087;28;20061;-67
2022/11/09 03:15:06;;;;;;;9.55;1.75;;;;;;;13.76;82.70;100319.53;4998669;28;20085;-67
2022/11/09 03:17:35;;;;;;;11.70;1.77;;;;;;;13.68;82.64;100329.59;5013796;28;20061;-67
2022/11/09 03:20:03;;;;;;;7.68;1.60;;;;;;;13.63;83.24;100321.50;5015004;28;20050;-67
2022/11/09 03:22:31;;;;;;;7.28;1.63;;;;;;;13.85;82.78;100320.25;5019146;28;20061;-67
2022/11/09 03:24:58;;;;;;;5.97;1.02;;;;;;;13.61;82.63;100323.81;5024717;28;20054;-66
2022/11/09 03:27:25;;;;;;;6.63;1.55;;;;;;;13.62;83.37;100314.34;5010551;28;20054;-67
2022/11/09 03:29:53;;;;;;;7.05;1.65;;;;;;;13.55;83.03;100323.22;5029549;28;20049;-67
2022/11/09 03:32:20;;;;;;;7.00;1.33;;;;;;;13.79;82.68;100319.66;4999792;28;20141;-67
2022/11/09 03:34:50;;;;;;;9.27;1.92;;;;;;;13.79;82.04;100324.41;5015188;28;20548;-67
2022/11/09 03:37:18;;;;;;;7.03;1.60;;;;;;;13.57;82.93;100323.69;5013895;28;20050;-67
2022/11/09 03:39:45;;;;;;;9.50;1.45;;;;;;;13.58;83.01;100325.28;5014957;28;20069;-67
2022/11/09 03:42:13;;;;;;;7.72;1.10;;;;;;;13.54;82.71;100329.91;5014568;28;20057;-67
2022/11/09 03:44:40;;;;;;;6.60;1.30;;;;;;;13.68;82.39;100328.75;4997148;28;20042;-66
2022/11/09 03:47:08;;;;;;;8.05;1.60;;;;;;;13.68;82.32;100329.59;5015015;28;20045;-67
2022/11/09 03:49:35;;;;;;;3.35;1.10;;;;;;;13.67;82.06;100330.72;5015304;28;20054;-67
2022/11/09 03:52:03;;;;;;;5.00;1.50;;;;;;;13.82;81.87;100332.84;5014790;28;20443;-66
2022/11/09 03:54:30;;;;;;;9.85;1.40;;;;;;;13.59;82.28;100337.16;4997795;28;20054;-67
2022/11/09 03:56:58;;;;;;;6.95;1.13;;;;;;;13.62;82.47;100332.88;5014369;28;20058;-66
2022/11/09 03:59:25;;;;;;;8.70;1.75;;;;;;;13.54;82.41;100332.69;4998544;28;20045;-67
2022/11/09 04:01:53;;;;;;;7.22;1.42;;;;;;;13.48;82.56;100344.28;5003488;28;20097;-66
2022/11/09 04:04:20;;;;;;;4.63;0.80;;;;;;;13.40;82.74;100340.47;5013532;28;20049;-67
2022/11/09 04:06:47;;;;;;;9.65;1.35;;;;;;;13.62;82.14;100343.97;5015392;28;20060;-66
2022/11/09 04:09:14;;;;;;;6.53;1.02;;;;;;;13.62;82.27;100338.44;5014847;28;20069;-67
2022/11/09 04:11:42;;;;;;;8.27;1.50;;;;;;;13.49;82.41;100349.47;5013486;28;20054;-67
2022/11/09 04:14:09;;;;;;;6.85;1.38;;;;;;;13.54;82.43;100349.28;5012370;28;20046;-67
2022/11/09 04:16:37;;;;;;;7.15;1.30;;;;;;;13.60;82.55;100349.84;5014582;28;20520;-67
2022/11/09 04:19:04;;;;;;;10.02;1.30;;;;;;;13.38;82.63;100359.38;5014500;28;20185;-67
2022/11/09 04:21:33;;;;;;;7.40;1.63;;;;;;;13.20;83.77;100357.09;5014483;28;20054;-66
2022/11/09 04:24:00;;;;;;;9.23;1.35;;;;;;;13.34;83.22;100352.88;5012784;28;20409;-67
2022/11/09 04:26:27;;;;;;;6.45;1.55;;;;;;;13.33;83.27;100353.22;5014534;28;20046;-67
2022/11/09 04:28:54;;;;;;;6.43;1.15;;;;;;;13.40;83.33;100364.56;5014180;28;20109;-67
2022/11/09 04:31:22;;;;;;;8.07;1.40;;;;;;;13.37;83.05;100360.50;5014383;28;20053;-67
2022/11/09 04:33:54;;;;;;;8.30;1.50;;;;;;;13.37;83.04;100363.25;5014938;28;20509;-67
2022/11/09 04:36:21;;;;;;;8.27;1.15;;;;;;;13.39;83.33;100373.97;5014076;28;20056;-66
2022/11/09 04:38:49;;;;;;;6.95;1.25;;;;;;;13.36;83.26;100378.25;4997219;28;20062;-67
2022/11/09 04:41:16;;;;;;;8.02;1.13;;;;;;;13.18;83.61;100384.28;5014665;28;20057;-67
2022/11/09 04:43:43;;;;;;;7.68;1.20;;;;;;;13.23;83.88;100390.41;5014358;28;20041;-67
2022/11/09 04:46:11;;;;;;;9.43;1.15;;;;;;;13.36;83.37;100383.78;5014486;28;20049;-66
2022/11/09 04:48:38;;;;;;;7.30;1.30;;;;;;;13.15;84.09;100391.31;5013183;28;20049;-66
2022/11/09 04:51:09;;;;;;;9.05;1.05;;;;;;;13.15;83.89;100390.47;5011452;28;20398;-68
2022/11/09 04:53:37;;;;;;;6.28;1.45;;;;;;;13.23;83.96;100390.41;5014088;28;20041;-67
2022/11/09 04:56:05;;;;;;;8.23;1.75;;;;;;;13.40;82.96;100397.75;5012894;28;20060;-67
2022/11/09 04:58:33;;;;;;;11.15;1.63;;;;;;;13.43;83.10;100397.06;4996907;28;20056;-68
2022/11/09 05:01:05;;;;;;;6.05;1.17;;;;;;;13.43;82.50;100397.88;5007064;28;20042;-67
2022/11/09 05:03:33;;;;;;;10.85;1.55;;;;;;;13.37;83.19;100395.69;4980545;28;20054;-67
2022/11/09 05:06:00;;;;;;;8.38;1.60;;;;;;;13.28;83.54;100401.28;5013295;28;20525;-67
2022/11/09 05:08:48;;;;;;;8.43;1.60;;;;;;;13.39;83.18;100399.69;5014264;28;20042;-66
2022/11/09 05:11:16;;;;;;;11.40;1.55;;;;;;;13.40;83.17;100398.56;5013846;28;20058;-66
2022/11/09 05:13:43;;;;;;;9.93;1.65;;;;;;;13.39;82.95;100398.88;5014272;28;20058;-68
2022/11/09 05:16:10;;;;;;;8.30;1.60;;;;;;;13.43;82.66;100395.13;5011961;28;20053;-66
2022/11/09 05:18:38;;;;;;;10.10;1.58;;;;;;;13.58;82.65;100400.00;5012649;28;20481;-67
2022/11/09 05:21:05;;;;;;;12.25;1.70;;;;;;;13.48;82.07;100402.38;5011535;28;20061;-67
2022/11/09 05:26:18;;;;;;;8.73;1.67;;;;;;;13.53;82.46;100402.97;5013919;28;20057;-67
2022/11/09 05:28:45;;;;;;;10.27;2.03;;;;;;;13.45;82.86;100403.06;5001772;28;20053;-68
2022/11/09 05:31:13;;;;;;;14.88;2.17;;;;;;;13.42;82.90;100401.00;5023330;28;20088;-67
2022/11/09 05:33:40;;;;;;;10.40;2.13;;;;;;;13.45;83.27;100398.34;5014353;28;20046;-67
2022/11/09 05:36:07;;;;;;;12.88;1.80;;;;;;;13.46;83.00;100407.44;5016969;28;20387;-67
2022/11/09 05:38:35;;;;;;;10.60;1.85;;;;;;;13.64;82.56;100406.13;5017280;28;20037;-67
2022/11/09 05:41:02;;;;;;;8.27;1.50;;;;;;;13.56;82.55;100404.28;5017659;28;20046;-69
2022/11/09 05:43:29;;;;;;;13.57;2.03;;;;;;;13.50;82.93;100405.63;5018073;28;20053;-67
2022/11/09 05:45:56;;;;;;;14.10;2.05;;;;;;;13.41;83.72;100414.00;5016047;28;20053;-68
2022/11/09 05:48:30;;;;;;;11.30;1.90;;;;;;;13.42;83.64;100414.81;5017665;28;20046;-70
2022/11/09 05:51:04;;;;;;;11.80;2.30;;;;;;;13.42;83.59;100412.84;5016782;28;20053;-67
2022/11/09 05:53:31;;;;;;;10.70;2.10;;;;;;;13.41;83.88;100418.72;5012446;28;20054;-67
2022/11/09 05:56:07;;;;;;;13.93;1.55;;;;;;;13.51;83.68;100421.88;5014732;28;20042;-67
2022/11/09 05:58:37;;;;;;;10.63;1.63;;;;;;;13.42;83.78;100421.16;5015497;28;20065;-68
2022/11/09 06:01:06;;;;;;;15.00;2.28;;;;;;;13.33;84.35;100419.63;5004029;28;20050;-66
2022/11/09 06:03:33;;;;;;;14.73;2.72;;;;;;;13.44;84.38;100423.59;5017832;28;20049;-68
2022/11/09 06:06:04;;;;;;;12.68;2.42;;;;;;;13.40;84.53;100433.72;5016825;28;20057;-67
2022/11/09 06:08:36;;;;;;;19.00;2.53;;;;;;;13.42;84.67;100423.91;5000098;28;20049;-67
2022/11/09 06:11:05;;;;;;;11.13;2.38;;;;;;;13.32;84.77;100417.97;5016866;28;20042;-67
2022/11/09 06:13:33;;;;;;;17.95;3.20;;;;;;;13.37;85.13;100421.34;5017477;28;20072;-68
2022/11/09 06:16:02;;;;;;;10.68;2.08;;;;;;;13.44;84.72;100421.63;5016298;28;20045;-67
2022/11/09 06:18:30;;;;;;;13.73;2.85;;;;;;;13.51;84.61;100419.13;5017584;28;20062;-62
2022/11/09 06:20:59;;;;;;;10.00;2.40;;;;;;;13.45;84.83;100428.78;4998678;28;20042;-63
2022/11/09 06:23:28;;;;;;;17.35;3.35;;;;;;;13.43;85.12;100425.56;5017678;28;20053;-63
2022/11/09 06:26:05;;;;;;;11.45;2.30;;;;;;;13.54;85.05;100434.25;5016525;28;20050;-61
2022/11/09 06:28:33;;;;;;;18.48;2.80;;;;;;;13.53;84.98;100429.84;5017030;28;20513;-62
2022/11/09 06:31:04;;;;;;;14.10;2.72;;;;;;;13.52;85.41;100442.88;5015219;28;20049;-62
2022/11/09 06:33:31;;;;;;;;;;;;;;;13.49;85.30;100440.00;5014294;28;20050;-62
2022/11/09 06:35:59;;;;;;;11.82;2.80;;;;;;;13.52;85.84;100440.13;4991927;28;19929;-62
2022/11/09 06:38:27;;;;;;;15.45;2.85;;;;;;;13.50;85.86;100453.47;5016320;28;20058;-62
2022/11/09 06:40:55;;;;;;;17.17;3.80;;;;;;;13.41;86.07;100455.50;4998781;28;20050;-63
2022/11/09 06:43:23;;;;;;;13.73;3.10;;;;;;;13.44;86.35;100457.59;5015650;28;20536;-63
2022/11/09 06:45:51;;;;;;;14.48;3.42;;;;;;;13.43;86.66;100460.69;5014095;28;20389;-62
2022/11/09 06:48:19;;;;;;;18.08;2.90;;;;;;;13.63;85.90;100462.66;5008813;28;20053;-62
2022/11/09 06:50:46;;;;;;;26.90;3.70;;;;;;;13.51;86.32;100466.16;5007277;28;20053;-62
2022/11/09 06:53:15;;;;;;;18.85;3.45;;;;;;;13.66;86.17;100473.03;5009881;28;20429;-63
2022/11/09 06:55:44;;;;;;;16.88;3.58;;;;;;;13.61;86.56;100472.44;5011117;28;20042;-62
2022/11/09 06:58:18;;;;;;;18.63;3.60;;;;;;;13.39;86.91;100470.81;4995694;28;20053;-62
2022/11/09 07:00:46;;;;;;;17.33;3.33;;;;;;;13.54;87.13;100476.56;5014970;28;20392;-62
2022/11/09 07:03:14;;;;;;;14.70;3.35;;;;;;;13.60;86.56;100476.34;5015905;28;20054;-63
2022/11/09 07:05:42;;;;;;;17.17;3.38;;;;;;;13.66;86.60;100481.34;4990108;28;20061;-62
2022/11/09 07:08:10;;;;;;;15.82;3.33;;;;;;;13.56;86.88;100485.31;5016472;28;20050;-63
2022/11/09 07:10:38;;;;;;;14.15;3.10;;;;;;;13.73;86.70;100498.22;5015857;28;20076;-62
2022/11/09 07:13:05;;;;;;;73.60;8.80;;;;;;;13.60;86.66;100496.53;5016061;28;20049;-63
2022/11/09 07:15:33;;;;;;;131.50;13.30;;;;;;;13.77;86.43;100496.38;4997521;28;20050;-63
2022/11/09 07:18:02;;;;;;;51.47;6.85;;;;;;;13.75;86.56;100504.22;5016607;28;20671;-62
2022/11/09 07:20:30;;;;;;;31.08;5.03;;;;;;;13.80;86.28;100497.66;5014286;28;20077;-62
2022/11/09 07:22:57;;;;;;;23.23;8.50;;;;;;;13.82;86.09;100504.47;5016136;28;20046;-63
2022/11/09 07:25:26;;;;;;;21.60;6.43;;;;;;;13.78;86.29;100506.31;5014145;28;20061;-62
2022/11/09 07:27:53;;;;;;;18.23;6.40;;;;;;;13.84;86.00;100512.44;4998486;28;20046;-64
2022/11/09 07:30:20;;;;;;;42.20;19.75;;;;;;;13.93;85.80;100518.72;4994478;28;20061;-62
2022/11/09 07:32:48;;;;;;;26.05;9.13;;;;;;;13.98;85.72;100521.25;5012448;28;20050;-63
2022/11/09 07:35:35;;;;;;;21.50;4.40;;;;;;;13.92;86.18;100522.63;5012870;28;20182;-62
2022/11/09 07:38:03;;;;;;;18.05;3.72;;;;;;;13.95;85.66;100514.44;4997671;28;20053;-62
2022/11/09 07:40:30;;;;;;;12.80;3.03;;;;;;;14.00;85.82;100516.19;5012202;28;20053;-63
2022/11/09 07:43:02;;;;;;;17.70;3.45;;;;;;;14.00;85.90;100524.50;5015698;28;20057;-63
2022/11/09 07:45:34;;;;;;;17.05;3.45;;;;;;;13.99;85.55;100522.88;5013943;28;20074;-62
2022/11/09 07:48:04;;;;;;;19.90;3.55;;;;;;;14.18;85.28;100517.63;5014712;28;20046;-62
2022/11/09 07:50:34;;;;;;;19.30;3.72;;;;;;;14.26;84.66;100514.00;5011899;28;20057;-63
2022/11/09 07:53:02;;;;;;;20.30;3.30;;;;;;;14.35;86.43;100515.50;5009668;28;20050;-59
2022/11/09 07:55:30;;;;;;;17.85;2.83;;;;;;;14.53;85.47;100516.94;5011832;28;20058;-60
2022/11/09 07:57:58;;;;;;;15.90;3.15;;;;;;;14.57;85.03;100528.16;5007758;28;20048;-60
2022/11/09 08:00:27;;;;;;;35.30;15.73;;;;;;;14.71;83.49;100531.41;5008823;28;20657;-60
2022/11/09 08:02:55;;;;;;;29.05;8.95;;;;;;;14.66;83.86;100523.31;4993050;28;20058;-61
2022/11/09 08:05:23;;;;;;;16.70;3.50;;;;;;;14.76;83.40;100531.16;5011270;28;20068;-63
2022/11/09 08:07:57;;;;;;;19.10;3.47;;;;;;;14.70;82.92;100529.75;5009760;28;20424;-60
2022/11/09 08:10:25;;;;;;;16.67;3.15;;;;;;;14.77;83.14;100543.84;5009352;28;20493;-61
2022/11/09 08:12:57;;;;;;;12.15;2.92;;;;;;;14.93;82.65;100544.78;4982862;28;20054;-64
2022/11/09 08:15:25;;;;;;;23.60;4.43;;;;;;;14.71;82.19;100548.03;5011672;28;20041;-62
2022/11/09 08:17:53;;;;;;;16.83;3.45;;;;;;;14.55;82.70;100549.84;5008889;28;20514;-63
2022/11/09 08:20:20;;;;;;;15.25;3.30;;;;;;;14.59;83.19;100561.88;5009963;28;20501;-61
2022/11/09 08:22:47;;;;;;;21.60;3.75;;;;;;;14.61;83.01;100554.00;5012801;28;20050;-63
2022/11/09 08:25:15;;;;;;;24.67;9.27;;;;;;;14.55;83.03;100558.97;4979854;28;20048;-64
2022/11/09 08:27:42;;;;;;;21.40;9.27;;;;;;;14.52;83.12;100556.09;5006142;28;20041;-63
2022/11/09 08:30:15;;;;;;;16.52;4.32;;;;;;;14.51;82.74;100555.28;5011236;28;20046;-63
2022/11/09 08:32:43;;;;;;;14.13;4.03;;;;;;;14.51;83.02;100560.00;5007199;28;20153;-63
2022/11/09 08:35:16;;;;;;;22.02;3.78;;;;;;;14.43;83.26;100563.69;5006831;28;20058;-62
2022/11/09 08:37:44;;;;;;;16.70;3.53;;;;;;;14.40;84.21;100564.38;5011413;28;20522;-62
2022/11/09 08:40:12;;;;;;;17.70;3.45;;;;;;;14.42;83.66;100562.88;4994049;28;20049;-62
2022/11/09 08:42:39;;;;;;;19.48;3.92;;;;;;;14.45;84.00;100564.94;5008755;28;20492;-62
2022/11/09 08:45:07;;;;;;;17.98;3.95;;;;;;;14.47;83.59;100572.94;4995020;28;20042;-63
2022/11/09 08:47:34;;;;;;;33.60;4.60;;;;;;;14.44;83.91;100571.66;4992881;28;20057;-64
2022/11/09 08:50:05;;;;;;;22.85;4.25;;;;;;;14.44;83.80;100579.97;5008605;28;20061;-63
2022/11/09 08:52:32;;;;;;;24.52;4.18;;;;;;;14.39;84.16;100584.91;5012993;28;20053;-63
2022/11/09 08:55:00;;;;;;;17.55;3.38;;;;;;;14.46;84.03;100585.16;4989961;28;20058;-63
2022/11/09 08:57:28;;;;;;;18.67;3.47;;;;;;;14.47;84.38;100587.59;5012308;28;20052;-63
2022/11/09 08:59:56;;;;;;;17.42;3.53;;;;;;;14.51;83.79;100588.53;4976802;28;20426;-63
2022/11/09 09:02:23;;;;;;;15.30;3.90;;;;;;;14.55;84.12;100605.28;5005126;28;20041;-63
2022/11/09 09:04:50;;;;;;;19.00;3.15;;;;;;;14.69;83.39;100597.47;4980812;28;20057;-64
2022/11/09 09:07:17;;;;;;;20.42;3.83;;;;;;;14.78;83.37;100603.72;4988043;28;20387;-63
2022/11/09 09:09:45;;;;;;;15.50;3.20;;;;;;;14.89;82.56;100602.09;5006237;28;20061;-64
2022/11/09 09:12:12;;;;;;;20.58;3.22;;;;;;;14.96;81.96;100609.88;5014110;28;20049;-63
2022/11/09 09:14:39;;;;;;;21.10;3.03;;;;;;;14.99;82.10;100598.09;5007758;28;20037;-62
2022/11/09 09:17:07;;;;;;;17.63;3.65;;;;;;;15.04;81.92;100603.41;4993201;28;20042;-64
2022/11/09 09:19:34;;;;;;;22.65;4.10;;;;;;;15.16;81.63;100614.50;5015252;28;20048;-65
2022/11/09 09:22:04;;;;;;;17.08;2.83;;;;;;;15.47;81.74;100618.34;4978269;28;20046;-65
2022/11/09 09:24:35;;;;;;;16.20;2.85;;;;;;;15.58;81.54;100613.13;5009319;28;20050;-64
2022/11/09 09:27:02;;;;;;;20.17;2.90;;;;;;;15.57;80.09;100614.28;4997270;28;20052;-63
2022/11/09 09:29:30;;;;;;;17.67;3.35;;;;;;;15.68;79.50;100619.00;5014321;28;20049;-65
2022/11/09 09:31:57;;;;;;;11.75;3.08;;;;;;;15.60;78.86;100619.16;5008742;28;20049;-68
2022/11/09 09:34:25;;;;;;;16.02;3.45;;;;;;;15.75;77.88;100633.13;5002817;28;20058;-63
2022/11/09 09:36:52;;;;;;;18.33;4.15;;;;;;;15.79;77.77;100630.44;4995219;28;20520;-63
2022/11/09 09:39:20;;;;;;;53.92;6.05;;;;;;;15.92;76.83;100636.78;5011699;28;20042;-64
2022/11/09 09:41:52;;;;;;;34.47;4.63;;;;;;;15.96;76.79;100635.72;4995904;28;20042;-62
2022/11/09 09:44:47;;;;;;;88.00;9.48;;;;;;;16.10;75.28;100641.72;5012807;28;20053;-63
2022/11/09 09:47:21;;;;;;;120.65;12.55;;;;;;;15.99;75.66;100629.47;4985483;28;20046;-64
2022/11/09 09:49:54;;;;;;;61.13;6.65;;;;;;;15.88;75.69;100647.81;4994815;28;20053;-63
2022/11/09 09:52:49;;;;;;;35.17;4.38;;;;;;;15.99;75.52;100654.47;5013110;28;20060;-62
2022/11/09 09:56:10;;;;;;;18.60;3.72;;;;;;;16.14;74.38;100645.41;4973375;28;20054;-64
2022/11/09 09:58:44;;;;;;;17.40;3.35;;;;;;;16.12;74.44;100653.28;4965242;28;20076;-63
2022/11/09 10:01:18;;;;;;;19.02;3.83;;;;;;;16.25;73.90;100656.84;4981135;28;20135;-64
2022/11/09 10:03:47;;;;;;;16.70;3.35;;;;;;;16.26;74.35;100658.44;4985805;28;20043;-63
2022/11/09 10:06:45;;;;;;;18.23;4.13;;;;;;;16.40;73.78;100659.69;4991601;28;20054;-64
2022/11/09 10:09:22;;;;;;;14.68;3.50;;;;;;;16.34;72.76;100663.03;5000767;28;20061;-64
2022/11/09 10:12:00;;;;;;;17.45;3.05;;;;;;;16.30;72.98;100664.94;4984715;28;20066;-64
2022/11/09 10:14:49;;;;;;;19.52;4.90;;;;;;;16.36;72.73;100681.00;4985607;28;20046;-65
2022/11/09 10:17:38;;;;;;;15.60;2.90;;;;;;;16.51;72.81;100676.69;4994921;28;20045;-65
2022/11/09 10:20:32;;;;;;;15.15;3.08;;;;;;;16.52;71.94;100679.13;4987704;28;20297;-64
2022/11/09 10:23:15;;;;;;;16.65;3.22;;;;;;;16.70;71.22;100685.97;4990698;28;20065;-64
2022/11/09 10:25:44;;;;;;;16.50;3.00;;;;;;;16.54;70.72;100690.69;4993426;28;20061;-63
2022/11/09 10:28:38;;;;;;;22.90;3.22;;;;;;;16.81;70.02;100692.66;4975282;28;20073;-62
2022/11/09 10:31:31;;;;;;;16.52;2.88;;;;;;;16.81;71.49;100703.78;4975942;28;20061;-63
2022/11/09 10:34:03;;;;;;;16.75;3.38;;;;;;;16.63;70.40;100704.44;4989328;28;20050;-63
2022/11/09 10:36:43;;;;;;;18.15;3.20;;;;;;;16.99;69.82;100697.88;4975036;28;20526;-64
2022/11/09 10:39:13;;;;;;;18.38;3.35;;;;;;;17.18;68.89;100698.81;4992678;28;20054;-62
2022/11/09 10:41:58;;;;;;;14.07;2.83;;;;;;;16.66;68.47;100696.22;4984069;28;20042;-62
2022/11/09 10:44:44;;;;;;;14.85;2.28;;;;;;;16.75;68.79;100701.63;4990885;28;20057;-63
2022/11/09 10:47:30;;;;;;;17.88;2.90;;;;;;;16.74;69.18;100692.44;4972053;28;20046;-63
2022/11/09 10:50:22;;;;;;;18.45;3.90;;;;;;;16.88;68.73;100691.25;4977358;28;20046;-63
2022/11/09 10:53:09;;;;;;;18.85;2.70;;;;;;;16.93;68.47;100688.97;4979793;28;20054;-65
2022/11/09 10:56:17;;;;;;;16.65;2.53;;;;;;;17.00;68.10;100697.53;4990409;28;20042;-64
2022/11/09 10:59:45;;;;;;;14.07;2.67;;;;;;;17.08;67.30;100695.75;4988053;28;20491;-64
2022/11/09 11:02:40;;;;;;;15.15;2.90;;;;;;;16.97;67.12;100695.47;4993175;28;20073;-64
2022/11/09 11:05:28;;;;;;;16.80;3.83;;;;;;;17.08;67.16;100698.53;4991127;28;20102;-63
2022/11/09 11:08:40;;;;;;;16.90;4.18;;;;;;;17.33;66.31;100700.00;4990005;28;20407;-65
2022/11/09 11:11:30;;;;;;;12.10;3.15;;;;;;;17.47;66.02;100715.09;4992257;28;20042;-65
2022/11/09 11:14:35;;;;;;;14.27;2.72;;;;;;;17.52;65.61;100720.41;4979167;28;20060;-65
2022/11/09 11:17:21;;;;;;;;;;;;;;;17.21;65.43;100711.22;4976054;28;20039;-65
2022/11/09 11:20:36;;;;;;;17.95;3.38;;;;;;;17.38;64.54;100722.78;4991408;28;19922;-66
2022/11/09 11:23:24;;;;;;;18.88;4.25;;;;;;;17.41;64.25;100721.28;4980541;28;20065;-66
2022/11/09 11:26:22;;;;;;;14.88;3.10;;;;;;;17.29;63.69;100722.19;4974828;28;20053;-65
2022/11/09 11:29:17;;;;;;;15.75;3.97;;;;;;;17.41;62.32;100710.97;4991189;28;20370;-66
2022/11/09 11:32:08;;;;;;;14.00;3.40;;;;;;;17.47;62.55;100720.66;4990498;28;20609;-66
2022/11/09 11:34:54;;;;;;;17.05;4.18;;;;;;;17.55;61.95;100714.13;4990117;28;20051;-63
2022/11/09 11:38:03;;;;;;;13.95;3.47;;;;;;;17.43;62.17;100719.75;4993990;28;20486;-64
2022/11/09 11:41:13;;;;;;;17.73;5.35;;;;;;;17.34;62.45;100718.31;4989599;28;20490;-62
2022/11/09 11:44:24;;;;;;;20.23;6.65;;;;;;;17.53;63.17;100713.69;4991513;28;20458;-65